Time;durP1;ratioP1;P1;durP2;ratioP2;P2;SDS_P1;SDS_P2;PMS_P1;PMS_P2;Temp;Humidity;BMP_temperature;BMP_pressure;BME280_temperature;BME280_humidity;BME280_pressure;Samples;Min_cycle;Max_cycle;Signal;HPM_P1;HPM_P2
2023/04/15 00:01:17;;;;;;;2.13;1.02;;;;;;;18.70;47.10;99897.72;4863055;29;20064;-57
2023/04/15 00:03:46;;;;;;;2.03;1.00;;;;;;;18.70;47.07;99888.81;4862987;29;20046;-57
2023/04/15 00:06:14;;;;;;;2.33;1.02;;;;;;;18.70;47.13;99892.34;4863311;29;20053;-57
2023/04/15 00:08:41;;;;;;;3.78;1.58;;;;;;;18.69;46.88;99885.28;4862770;29;20432;-58
2023/04/15 00:11:08;;;;;;;4.68;1.67;;;;;;;18.70;47.23;99888.81;4862809;29;20065;-59
2023/04/15 00:13:36;;;;;;;2.45;1.08;;;;;;;18.69;47.18;99885.28;4863101;29;20388;-59
2023/04/15 00:16:05;;;;;;;2.15;0.98;;;;;;;18.69;47.04;99887.94;4862807;29;20056;-59
2023/04/15 00:18:33;;;;;;;2.60;1.10;;;;;;;18.69;47.10;99881.75;4862562;29;20057;-59
2023/04/15 00:21:00;;;;;;;2.90;1.30;;;;;;;18.69;47.10;99884.44;4862721;29;20053;-58
2023/04/15 00:23:27;;;;;;;3.78;0.90;;;;;;;18.68;47.09;99870.19;4862811;29;20045;-59
2023/04/15 00:25:55;;;;;;;1.85;0.73;;;;;;;18.68;47.07;99878.22;4862655;29;20469;-59
2023/04/15 00:28:22;;;;;;;4.50;0.90;;;;;;;18.68;47.11;99872.03;4862484;29;20052;-59
2023/04/15 00:30:50;;;;;;;2.88;1.00;;;;;;;18.68;47.14;99866.66;4860905;29;20535;-57
2023/04/15 00:33:17;;;;;;;2.38;1.00;;;;;;;18.67;47.05;99865.78;4862371;29;20416;-57
2023/04/15 00:35:46;;;;;;;1.77;0.77;;;;;;;18.67;47.11;99860.44;4862912;29;20056;-57
2023/04/15 00:38:13;;;;;;;2.60;1.15;;;;;;;18.68;47.03;99861.31;4845222;29;20058;-56
2023/04/15 00:40:42;;;;;;;3.13;0.82;;;;;;;18.67;47.07;99859.59;4861105;29;20065;-58
2023/04/15 00:43:09;;;;;;;2.85;1.05;;;;;;;18.67;47.19;99867.63;4862317;29;20192;-59
2023/04/15 00:45:37;;;;;;;3.20;0.80;;;;;;;18.66;47.11;99866.81;4860013;29;20057;-58
2023/04/15 00:48:04;;;;;;;3.78;0.98;;;;;;;18.67;46.93;99873.00;4861924;29;20056;-59
2023/04/15 00:50:32;;;;;;;2.35;0.70;;;;;;;18.66;47.11;99866.81;4862136;29;20076;-57
2023/04/15 00:53:00;;;;;;;2.53;0.93;;;;;;;18.66;46.79;99872.16;4862011;29;20042;-57
2023/04/15 00:55:27;;;;;;;3.20;1.13;;;;;;;18.66;47.00;99866.81;4860875;29;20061;-57
2023/04/15 00:57:56;;;;;;;4.00;1.00;;;;;;;18.66;46.77;99872.16;4862455;29;20056;-57
2023/04/15 01:00:23;;;;;;;2.95;1.08;;;;;;;18.67;47.08;99868.47;4862137;29;20056;-57
2023/04/15 01:02:51;;;;;;;2.05;0.88;;;;;;;18.66;47.09;99876.69;4861727;29;20053;-57
2023/04/15 01:05:19;;;;;;;2.72;1.58;;;;;;;18.66;47.05;99872.16;4862193;29;20400;-57
2023/04/15 01:07:47;;;;;;;2.17;1.05;;;;;;;18.65;47.01;99873.16;4861734;29;20053;-57
2023/04/15 01:10:15;;;;;;;3.05;1.05;;;;;;;18.66;47.01;99879.38;4861553;29;20062;-59
2023/04/15 01:12:43;;;;;;;2.40;0.73;;;;;;;18.66;46.96;99874.00;4862216;29;20381;-59
2023/04/15 01:15:10;;;;;;;2.05;0.85;;;;;;;18.65;47.04;99875.84;4860450;29;20049;-59
2023/04/15 01:17:38;;;;;;;2.70;0.98;;;;;;;18.65;47.04;99878.53;4861555;29;20060;-59
2023/04/15 01:20:09;;;;;;;2.70;1.30;;;;;;;18.64;46.99;99874.16;4862141;29;20068;-59
2023/04/15 01:22:38;;;;;;;2.30;1.02;;;;;;;18.64;47.00;99882.22;4861340;29;20045;-59
2023/04/15 01:25:33;;;;;;;5.13;0.90;;;;;;;18.64;47.09;99881.38;4860381;29;20061;-59
2023/04/15 01:28:01;;;;;;;;;;;;;;;18.64;47.08;99876.00;4861603;29;20416;-59
2023/04/15 01:30:32;;;;;;;1.42;0.77;;;;;;;18.64;47.15;99873.31;4860439;29;19931;-58
2023/04/15 01:33:00;;;;;;;3.80;1.20;;;;;;;18.63;47.07;99875.13;4860292;29;20062;-59
2023/04/15 01:35:27;;;;;;;2.10;0.80;;;;;;;18.64;47.02;99876.84;4860481;29;20061;-59
2023/04/15 01:38:01;;;;;;;2.30;0.90;;;;;;;18.63;47.05;99872.47;4860293;29;20057;-59
2023/04/15 01:40:28;;;;;;;2.20;0.85;;;;;;;18.63;47.07;99875.13;4858345;29;20064;-57
2023/04/15 01:42:57;;;;;;;1.42;0.85;;;;;;;18.63;47.06;99882.34;4861669;29;20480;-57
2023/04/15 01:45:25;;;;;;;2.05;0.68;;;;;;;18.63;47.11;99872.47;4860038;29;20053;-57
2023/04/15 01:47:53;;;;;;;3.63;1.20;;;;;;;18.62;47.17;99875.31;4861139;29;20065;-57
2023/04/15 01:50:20;;;;;;;2.13;0.90;;;;;;;18.62;47.18;99878.81;4860292;29;20064;-59
2023/04/15 01:52:47;;;;;;;2.67;1.23;;;;;;;18.63;47.00;99876.97;4860155;29;20057;-58
2023/04/15 01:55:15;;;;;;;4.22;1.02;;;;;;;18.62;47.08;99873.47;4859988;29;20427;-59
2023/04/15 01:57:45;;;;;;;2.33;0.93;;;;;;;18.62;47.03;99876.13;4860229;29;20082;-58
2023/04/15 02:00:12;;;;;;;2.45;1.00;;;;;;;18.62;47.15;99870.78;4860110;29;20053;-59
2023/04/15 02:02:41;;;;;;;1.95;1.00;;;;;;;18.62;47.18;99872.63;4859492;29;20057;-59
2023/04/15 02:05:09;;;;;;;2.45;0.95;;;;;;;18.62;47.09;99876.13;4861071;29;20050;-59
2023/04/15 02:07:37;;;;;;;2.72;1.23;;;;;;;18.62;47.04;99873.47;4860918;29;20057;-59
2023/04/15 02:10:04;;;;;;;3.83;1.45;;;;;;;18.61;47.11;99885.19;4860555;29;20058;-57
2023/04/15 02:12:35;;;;;;;2.65;1.00;;;;;;;18.61;47.07;99890.53;4861570;29;20061;-57
2023/04/15 02:15:03;;;;;;;3.67;0.90;;;;;;;18.62;47.18;99888.69;4859896;29;20053;-57
2023/04/15 02:17:33;;;;;;;2.67;1.15;;;;;;;18.61;47.08;99890.53;4859367;29;20057;-57
2023/04/15 02:20:01;;;;;;;2.92;0.90;;;;;;;18.61;46.83;99890.53;4860020;29;20061;-58
2023/04/15 02:22:31;;;;;;;1.75;0.82;;;;;;;18.61;46.96;99890.53;4859732;29;20512;-59
2023/04/15 02:24:58;;;;;;;2.55;1.17;;;;;;;18.61;46.98;99889.69;4860585;29;20050;-59
2023/04/15 02:27:27;;;;;;;3.40;1.00;;;;;;;18.61;46.87;99887.03;4859977;29;20393;-59
2023/04/15 02:29:54;;;;;;;1.98;0.77;;;;;;;18.60;47.05;99893.38;4860689;29;20057;-56
2023/04/15 02:32:23;;;;;;;2.65;1.00;;;;;;;18.61;46.95;99892.38;4860408;29;20045;-57
2023/04/15 02:34:50;;;;;;;2.47;1.08;;;;;;;18.60;47.06;99894.22;4860924;29;20057;-56
2023/04/15 02:37:19;;;;;;;2.20;1.05;;;;;;;18.59;46.86;99886.31;4859884;29;20057;-57
2023/04/15 02:39:46;;;;;;;3.10;0.80;;;;;;;18.60;46.98;99891.53;4859964;29;20037;-57
2023/04/15 02:42:15;;;;;;;2.15;0.82;;;;;;;18.59;47.00;99894.34;4859611;29;20072;-57
2023/04/15 02:44:43;;;;;;;2.33;1.00;;;;;;;18.58;46.87;99890.84;4859249;29;20049;-56
2023/04/15 02:47:10;;;;;;;1.27;0.70;;;;;;;18.58;46.81;99890.84;4858919;29;20054;-56
2023/04/15 02:49:39;;;;;;;2.28;0.90;;;;;;;18.57;47.02;99889.16;4860595;29;20076;-57
2023/04/15 02:52:06;;;;;;;2.65;1.15;;;;;;;18.58;47.00;99890.00;4859260;29;20057;-57
2023/04/15 02:54:34;;;;;;;2.17;0.93;;;;;;;18.57;46.97;99894.53;4859188;29;20053;-55
2023/04/15 02:57:01;;;;;;;2.15;0.98;;;;;;;18.57;46.88;99891.84;4858719;29;20388;-56
2023/04/15 02:59:29;;;;;;;3.20;0.98;;;;;;;18.58;47.24;99890.84;4859373;29;20061;-58
2023/04/15 03:01:59;;;;;;;4.55;1.63;;;;;;;18.57;46.72;99888.31;4860727;29;20053;-59
2023/04/15 03:04:29;;;;;;;4.05;0.98;;;;;;;18.57;47.15;99891.84;4859424;29;20060;-59
2023/04/15 03:06:56;;;;;;;2.88;1.15;;;;;;;18.57;46.86;99885.63;4859264;29;20049;-59
2023/04/15 03:09:24;;;;;;;1.80;0.80;;;;;;;18.56;46.99;99882.13;4861696;29;20054;-58
2023/04/15 03:11:53;;;;;;;2.33;0.98;;;;;;;18.57;47.22;99882.97;4862818;29;20064;-58
2023/04/15 03:14:21;;;;;;;2.00;0.90;;;;;;;18.57;47.02;99882.97;4863085;29;20053;-58
2023/04/15 03:16:50;;;;;;;2.25;1.15;;;;;;;18.56;47.06;99875.91;4862224;29;20396;-58
2023/04/15 03:19:18;;;;;;;1.85;0.77;;;;;;;18.56;47.05;99875.91;4862426;29;20500;-57
2023/04/15 03:21:45;;;;;;;2.30;1.08;;;;;;;18.55;47.13;99877.72;4863931;29;20399;-58
2023/04/15 03:24:13;;;;;;;1.98;0.85;;;;;;;18.55;47.22;99880.41;4862242;29;20053;-57
2023/04/15 03:26:40;;;;;;;1.92;0.80;;;;;;;18.56;47.24;99883.97;4862535;29;20049;-57
2023/04/15 03:29:11;;;;;;;2.33;0.80;;;;;;;18.54;47.11;99879.56;4862696;29;20069;-58
2023/04/15 03:31:40;;;;;;;3.22;1.33;;;;;;;18.56;47.16;99878.59;4862060;29;20519;-59
2023/04/15 03:34:07;;;;;;;1.90;0.93;;;;;;;18.55;47.11;99885.75;4863092;29;20072;-59
2023/04/15 03:36:36;;;;;;;2.67;0.88;;;;;;;18.56;47.27;99886.63;4862250;29;20062;-59
2023/04/15 03:39:03;;;;;;;2.20;0.82;;;;;;;18.55;47.22;99880.41;4863515;29;20416;-58
2023/04/15 03:41:31;;;;;;;3.63;1.20;;;;;;;18.54;47.04;99876.88;4861956;29;20433;-59
2023/04/15 03:43:59;;;;;;;2.35;0.90;;;;;;;18.54;47.23;99873.38;4862315;29;20053;-59
2023/04/15 03:46:26;;;;;;;3.38;0.80;;;;;;;18.54;47.22;99884.09;4862968;29;20072;-59
2023/04/15 03:48:54;;;;;;;2.00;0.82;;;;;;;18.54;47.24;99886.75;4863229;29;20385;-58
2023/04/15 03:51:21;;;;;;;2.10;1.10;;;;;;;18.54;47.26;99884.09;4862957;29;20408;-58
2023/04/15 03:53:48;;;;;;;2.95;0.85;;;;;;;18.53;47.12;99885.94;4862935;29;20050;-59
2023/04/15 03:56:16;;;;;;;4.65;0.77;;;;;;;18.53;47.15;99887.78;4863207;29;20064;-59
2023/04/15 03:58:43;;;;;;;2.83;1.05;;;;;;;18.53;47.15;99882.41;4863056;29;20049;-58
2023/04/15 04:01:11;;;;;;;1.92;0.80;;;;;;;18.53;47.15;99890.44;4863046;29;20053;-57
2023/04/15 04:03:39;;;;;;;2.88;1.13;;;;;;;18.53;47.19;99883.25;4862747;29;20053;-57
2023/04/15 04:06:07;;;;;;;2.10;1.02;;;;;;;18.54;47.12;99884.94;4863106;29;20069;-57
2023/04/15 04:08:35;;;;;;;2.47;0.90;;;;;;;18.53;47.13;99890.44;4862610;29;20049;-57
2023/04/15 04:11:02;;;;;;;3.63;1.08;;;;;;;18.53;47.13;99888.59;4863112;29;20060;-58
2023/04/15 04:13:29;;;;;;;3.63;1.30;;;;;;;18.53;47.11;99893.13;4863006;29;20056;-59
2023/04/15 04:15:57;;;;;;;1.98;0.90;;;;;;;18.53;47.00;99899.31;4862665;29;20050;-59
2023/04/15 04:18:24;;;;;;;2.20;0.88;;;;;;;18.51;47.11;99900.47;4862015;29;20393;-58
2023/04/15 04:20:51;;;;;;;2.28;1.00;;;;;;;18.53;47.15;99898.50;4862716;29;20050;-56
2023/04/15 04:23:19;;;;;;;1.75;1.00;;;;;;;18.51;47.14;99909.38;4862542;29;20105;-57
2023/04/15 04:25:46;;;;;;;3.65;0.82;;;;;;;18.52;47.34;99911.06;4862744;29;20507;-57
2023/04/15 04:28:14;;;;;;;2.55;1.08;;;;;;;18.52;47.23;99918.25;4862574;29;20500;-57
2023/04/15 04:30:41;;;;;;;3.17;1.20;;;;;;;18.50;47.31;99912.19;4862585;29;20485;-58
2023/04/15 04:33:08;;;;;;;2.65;1.20;;;;;;;18.51;47.26;99914.72;4862677;29;20049;-58
2023/04/15 04:35:36;;;;;;;2.45;0.95;;;;;;;18.50;47.29;99918.38;4862388;29;20053;-59
2023/04/15 04:38:03;;;;;;;3.35;0.88;;;;;;;18.50;47.29;99921.06;4862307;29;20045;-59
2023/04/15 04:40:31;;;;;;;3.35;1.08;;;;;;;18.51;47.36;99921.91;4862498;29;20050;-59
2023/04/15 04:42:59;;;;;;;1.70;0.82;;;;;;;18.51;47.40;99928.13;4860589;29;20073;-59
2023/04/15 04:45:26;;;;;;;2.75;1.40;;;;;;;18.51;47.19;99928.13;4861635;29;20060;-59
2023/04/15 04:47:54;;;;;;;2.50;0.80;;;;;;;18.50;47.20;99915.69;4862512;29;20515;-59
2023/04/15 04:50:21;;;;;;;3.30;1.30;;;;;;;18.51;47.21;99924.59;4862101;29;20049;-54
2023/04/15 04:52:48;;;;;;;2.05;0.90;;;;;;;18.52;47.29;99928.97;4862010;29;20049;-55
2023/04/15 04:55:16;;;;;;;2.60;0.98;;;;;;;18.51;47.07;99927.25;4862280;29;20049;-54
2023/04/15 04:57:43;;;;;;;3.58;1.00;;;;;;;18.50;47.10;99934.47;4861507;29;20061;-56
2023/04/15 05:00:11;;;;;;;2.70;1.00;;;;;;;18.50;47.10;99936.31;4861962;29;20401;-56
2023/04/15 05:02:40;;;;;;;2.90;0.93;;;;;;;18.49;47.12;99940.81;4861864;29;20049;-56
2023/04/15 05:05:08;;;;;;;3.88;0.95;;;;;;;18.49;47.21;99939.97;4861621;29;20072;-57
2023/04/15 05:07:37;;;;;;;2.50;0.95;;;;;;;18.51;47.24;99948.69;4861265;29;20057;-56
2023/04/15 05:10:05;;;;;;;2.00;0.90;;;;;;;18.48;47.20;99947.19;4861151;29;20054;-59
2023/04/15 05:12:32;;;;;;;2.65;1.27;;;;;;;18.49;47.16;99950.69;4861749;29;20072;-59
2023/04/15 05:15:00;;;;;;;1.77;0.80;;;;;;;18.49;47.34;99956.06;4861951;29;20060;-59
2023/04/15 05:17:27;;;;;;;2.92;1.17;;;;;;;18.49;47.44;99950.69;4861540;29;20438;-58
2023/04/15 05:19:55;;;;;;;3.45;1.35;;;;;;;18.49;47.30;99961.41;4862121;29;20053;-54
2023/04/15 05:22:22;;;;;;;2.80;1.20;;;;;;;18.48;47.49;99968.63;4861462;29;20511;-55
2023/04/15 05:24:50;;;;;;;4.78;1.10;;;;;;;18.48;47.36;99960.59;4861462;29;20053;-55
2023/04/15 05:27:18;;;;;;;2.28;1.00;;;;;;;18.48;47.45;99967.78;4861885;29;20053;-55
2023/04/15 05:29:45;;;;;;;3.55;1.38;;;;;;;18.48;47.51;99968.63;4860473;29;20060;-56
2023/04/15 05:32:12;;;;;;;2.22;1.00;;;;;;;18.48;47.38;99967.78;4860936;29;20072;-56
2023/04/15 05:34:40;;;;;;;2.42;1.13;;;;;;;18.47;47.41;99969.63;4861394;29;20057;-56
2023/04/15 05:37:08;;;;;;;2.35;0.90;;;;;;;18.47;47.33;99968.75;4861506;29;20053;-56
2023/04/15 05:39:35;;;;;;;3.15;1.00;;;;;;;18.48;47.24;99973.16;4861282;29;20054;-56
2023/04/15 05:42:02;;;;;;;3.03;0.85;;;;;;;18.47;47.29;99968.75;4861252;29;20493;-56
2023/04/15 05:44:29;;;;;;;3.55;1.00;;;;;;;18.48;47.21;99978.50;4859801;29;20388;-55
2023/04/15 05:46:57;;;;;;;2.55;1.08;;;;;;;18.47;47.12;99974.97;4861092;29;20064;-54
2023/04/15 05:49:24;;;;;;;2.25;1.05;;;;;;;18.47;47.24;99980.34;4861365;29;20480;-58
2023/04/15 05:51:51;;;;;;;2.50;1.08;;;;;;;18.47;47.48;99984.84;4860913;29;20374;-59
2023/04/15 05:54:19;;;;;;;3.17;1.30;;;;;;;18.47;47.24;99984.84;4861432;29;20057;-59
2023/04/15 05:56:46;;;;;;;3.28;1.00;;;;;;;18.48;47.28;99989.22;4860998;29;20053;-59
2023/04/15 05:59:13;;;;;;;2.80;1.10;;;;;;;18.47;47.29;99992.88;4861140;29;20060;-56
2023/04/15 06:01:41;;;;;;;3.38;1.33;;;;;;;18.46;47.26;99989.34;4861225;29;20056;-55
2023/04/15 06:04:08;;;;;;;4.18;1.20;;;;;;;18.47;47.22;100000.91;4860982;29;20663;-53
2023/04/15 06:06:37;;;;;;;3.63;1.02;;;;;;;18.47;47.47;100006.28;4861181;29;20049;-55
2023/04/15 06:09:04;;;;;;;3.10;1.10;;;;;;;18.48;47.28;100005.31;4860708;29;20053;-55
2023/04/15 06:11:31;;;;;;;2.83;1.27;;;;;;;18.48;47.29;100002.63;4860931;29;20046;-55
2023/04/15 06:13:59;;;;;;;2.72;0.98;;;;;;;18.47;47.34;100007.16;4861197;29;20049;-55
2023/04/15 06:16:26;;;;;;;2.33;1.30;;;;;;;18.48;47.26;100002.63;4860829;29;20057;-55
2023/04/15 06:18:53;;;;;;;2.17;1.13;;;;;;;18.50;47.25;99997.94;4860965;29;20056;-55
2023/04/15 06:21:21;;;;;;;2.13;1.20;;;;;;;18.50;47.03;99992.59;4860898;29;20045;-54
2023/04/15 06:23:48;;;;;;;3.92;1.50;;;;;;;18.50;46.66;99995.25;4861128;29;20053;-56
2023/04/15 06:26:15;;;;;;;3.05;1.40;;;;;;;18.51;46.34;99996.94;4860843;29;20041;-55
2023/04/15 06:28:44;;;;;;;2.85;1.30;;;;;;;18.51;46.01;99996.94;4860933;29;20046;-59
2023/04/15 06:31:11;;;;;;;2.80;1.35;;;;;;;18.51;46.20;100002.31;4861087;29;20053;-54
2023/04/15 06:33:38;;;;;;;2.40;1.05;;;;;;;18.52;45.86;100001.34;4844274;29;20053;-55
2023/04/15 06:36:06;;;;;;;3.97;1.10;;;;;;;18.52;46.08;99999.50;4861067;29;20054;-54
2023/04/15 06:38:33;;;;;;;2.45;1.15;;;;;;;18.52;46.06;99998.66;4860763;29;20053;-55
2023/04/15 06:41:02;;;;;;;2.65;1.30;;;;;;;18.52;46.13;100004.03;4860356;29;20050;-58
2023/04/15 06:43:29;;;;;;;2.45;1.15;;;;;;;18.52;46.00;100002.19;4861252;29;20049;-59
2023/04/15 06:45:57;;;;;;;4.30;1.67;;;;;;;18.54;45.71;100002.03;4863048;29;20053;-58
2023/04/15 06:48:24;;;;;;;3.67;1.52;;;;;;;18.53;45.90;99997.66;4864665;29;20484;-59
2023/04/15 06:50:51;;;;;;;2.58;1.40;;;;;;;18.53;45.51;100003.88;4864389;29;20062;-55
2023/04/15 06:53:19;;;;;;;2.88;1.50;;;;;;;18.53;45.56;99998.50;4864209;29;20052;-55
2023/04/15 06:55:46;;;;;;;5.05;1.33;;;;;;;18.54;45.32;100002.88;4864341;29;20049;-54
2023/04/15 06:58:13;;;;;;;3.50;1.85;;;;;;;18.56;45.60;100004.56;4864250;29;20061;-55
2023/04/15 07:00:41;;;;;;;2.83;1.27;;;;;;;18.56;45.30;100009.94;4864180;29;20050;-58
2023/04/15 07:03:09;;;;;;;3.70;2.00;;;;;;;18.57;46.16;100009.78;4863922;29;20053;-59
2023/04/15 07:05:37;;;;;;;2.97;1.38;;;;;;;18.59;47.31;100012.31;4863630;29;20080;-58
2023/04/15 07:08:05;;;;;;;3.78;1.33;;;;;;;18.59;47.27;100006.94;4863582;29;20053;-58
2023/04/15 07:10:33;;;;;;;3.33;1.15;;;;;;;18.61;46.46;100004.97;4863405;29;20061;-55
2023/04/15 07:13:01;;;;;;;5.13;1.98;;;;;;;18.61;45.83;100010.34;4864553;29;20053;-55
2023/04/15 07:15:29;;;;;;;3.80;1.40;;;;;;;18.61;46.01;100008.50;4863314;29;20053;-56
2023/04/15 07:17:56;;;;;;;3.38;1.67;;;;;;;18.63;45.99;100021.75;4863388;29;20481;-54
2023/04/15 07:20:23;;;;;;;3.25;1.23;;;;;;;18.63;46.04;100017.22;4864116;29;20050;-58
2023/04/15 07:22:51;;;;;;;3.28;1.17;;;;;;;18.64;46.21;100016.25;4863688;29;20060;-59
2023/04/15 07:25:18;;;;;;;3.53;1.60;;;;;;;18.65;46.27;100012.56;4863540;29;20057;-59
2023/04/15 07:27:46;;;;;;;3.00;1.30;;;;;;;18.66;46.34;100016.94;4863873;29;20045;-59
2023/04/15 07:30:13;;;;;;;3.30;1.45;;;;;;;18.67;45.94;100018.63;4863500;29;20440;-55
2023/04/15 07:32:41;;;;;;;3.05;1.50;;;;;;;18.67;46.14;100015.94;4863288;29;20053;-55
2023/04/15 07:35:09;;;;;;;3.75;1.52;;;;;;;18.67;46.21;100010.56;4863947;29;20057;-56
2023/04/15 07:37:36;;;;;;;2.72;1.40;;;;;;;18.69;46.22;100010.44;4863379;29;20062;-52
2023/04/15 07:40:06;;;;;;;4.55;1.50;;;;;;;18.71;46.21;100013.84;4863670;29;20048;-59
2023/04/15 07:42:33;;;;;;;2.35;1.20;;;;;;;18.70;46.33;100013.00;4863473;29;20393;-59
2023/04/15 07:45:01;;;;;;;2.97;1.48;;;;;;;18.71;46.12;100014.69;4862257;29;20049;-58
2023/04/15 07:47:28;;;;;;;4.25;1.75;;;;;;;18.73;46.29;100017.22;4862021;29;20052;-59
2023/04/15 07:49:56;;;;;;;2.60;1.50;;;;;;;18.72;46.17;100004.81;4863093;29;20042;-58
2023/04/15 07:52:23;;;;;;;4.50;1.55;;;;;;;18.74;46.13;100011.72;4863462;29;20073;-59
2023/04/15 07:54:50;;;;;;;3.78;1.58;;;;;;;18.75;46.88;100007.19;4862857;29;20050;-59
2023/04/15 07:57:18;;;;;;;4.63;1.40;;;;;;;18.76;46.83;100006.22;4863519;29;20112;-59
2023/04/15 07:59:45;;;;;;;10.07;1.77;;;;;;;18.77;46.80;100013.25;4863505;29;20049;-56
2023/04/15 08:02:12;;;;;;;2.83;1.48;;;;;;;18.77;46.44;100008.75;4862973;29;20054;-56
2023/04/15 08:04:39;;;;;;;4.15;1.92;;;;;;;18.78;46.63;100018.47;4862917;29;20053;-55
2023/04/15 08:07:07;;;;;;;2.53;1.35;;;;;;;18.78;46.48;100021.16;4863146;29;20484;-54
2023/04/15 08:09:34;;;;;;;4.95;1.90;;;;;;;18.80;46.20;100026.38;4862651;29;20060;-59
2023/04/15 08:12:02;;;;;;;2.90;1.58;;;;;;;18.81;45.96;100022.69;4862470;29;20388;-60
2023/04/15 08:14:30;;;;;;;2.72;1.65;;;;;;;18.81;46.05;100020.00;4862554;29;20045;-59
2023/04/15 08:16:57;;;;;;;4.93;1.77;;;;;;;18.83;45.91;100022.53;4863137;29;20053;-59
2023/04/15 08:19:24;;;;;;;3.63;1.95;;;;;;;18.86;45.72;100033.81;4862772;29;20053;-56
2023/04/15 08:21:51;;;;;;;5.55;1.85;;;;;;;18.86;46.51;100022.25;4863017;29;20050;-55
2023/04/15 08:24:19;;;;;;;5.13;2.13;;;;;;;18.86;46.14;100027.63;4862716;29;20475;-54
2023/04/15 08:26:46;;;;;;;4.30;1.60;;;;;;;18.86;46.17;100028.44;4862603;29;20061;-55
2023/04/15 08:29:14;;;;;;;3.67;1.75;;;;;;;18.87;46.44;100030.13;4861746;29;20065;-59
2023/04/15 08:31:41;;;;;;;5.40;2.00;;;;;;;18.87;46.34;100030.13;4862470;29;20057;-59
2023/04/15 08:34:09;;;;;;;3.05;1.65;;;;;;;18.90;46.74;100024.47;4862318;29;20060;-60
2023/04/15 08:36:36;;;;;;;6.28;1.70;;;;;;;18.92;46.21;100025.19;4862802;29;20045;-55
2023/04/15 08:39:03;;;;;;;5.97;2.40;;;;;;;18.93;46.14;100024.19;4862582;29;20485;-59
2023/04/15 08:41:46;;;;;;;6.07;1.55;;;;;;;18.94;46.60;100025.88;4862290;29;20050;-59
2023/04/15 08:44:14;;;;;;;4.70;2.07;;;;;;;18.95;46.71;100015.97;4862703;29;20058;-60
2023/04/15 08:46:41;;;;;;;3.38;1.73;;;;;;;18.95;46.90;100029.41;4861122;29;20049;-59
2023/04/15 08:49:12;;;;;;;5.40;2.30;;;;;;;18.95;46.38;100027.56;4861775;29;20057;-59
2023/04/15 08:51:40;;;;;;;4.20;1.83;;;;;;;18.93;46.20;100034.06;4862054;29;20515;-59
2023/04/15 08:54:08;;;;;;;4.60;2.20;;;;;;;18.92;45.27;100027.88;4862605;29;20060;-59
2023/04/15 08:56:36;;;;;;;6.53;2.03;;;;;;;18.94;46.67;100030.41;4862146;29;20053;-59
2023/04/15 08:59:04;;;;;;;5.63;2.40;;;;;;;18.93;46.67;100028.72;4862090;29;20096;-56
2023/04/15 09:01:32;;;;;;;9.23;2.28;;;;;;;18.93;46.72;100021.50;4862249;29;20053;-55
2023/04/15 09:04:02;;;;;;;4.97;1.90;;;;;;;18.95;46.41;100026.72;4861908;29;20066;-56
2023/04/15 09:06:29;;;;;;;3.83;1.73;;;;;;;18.96;46.72;100028.44;4861530;29;20539;-56
2023/04/15 09:08:57;;;;;;;6.70;1.88;;;;;;;18.96;46.57;100028.44;4861999;29;20527;-55
2023/04/15 09:11:24;;;;;;;9.43;2.17;;;;;;;18.99;45.50;100030.78;4861500;29;20060;-55
2023/04/15 09:13:51;;;;;;;6.00;1.52;;;;;;;18.99;46.21;100020.06;4861818;29;20056;-56
2023/04/15 09:16:19;;;;;;;5.07;2.28;;;;;;;19.00;45.71;100019.94;4861635;29;20051;-56
2023/04/15 09:18:46;;;;;;;3.38;1.77;;;;;;;19.01;45.93;100018.09;4861855;29;20045;-59
2023/04/15 09:21:16;;;;;;;6.68;2.22;;;;;;;18.99;45.47;100018.22;4861949;29;20053;-60
2023/04/15 09:23:56;;;;;;;5.65;2.75;;;;;;;18.98;44.53;100013.84;4861850;29;20057;-60
2023/04/15 09:26:31;;;;;;;5.45;2.15;;;;;;;18.98;45.28;100021.06;4861542;29;20049;-60
2023/04/15 09:29:09;;;;;;;4.25;1.80;;;;;;;18.97;45.24;100011.34;4861727;29;20061;-57
2023/04/15 09:31:37;;;;;;;3.92;2.10;;;;;;;18.99;45.83;100009.31;4862101;29;20514;-56
2023/04/15 09:34:05;;;;;;;4.20;1.65;;;;;;;19.00;45.71;100003.00;4861356;29;20396;-56
2023/04/15 09:36:53;;;;;;;7.30;2.63;;;;;;;19.02;45.97;99995.63;4860126;29;20059;-56
2023/04/15 09:39:21;;;;;;;5.15;2.08;;;;;;;19.05;45.60;100007.91;4861678;29;20053;-60
2023/04/15 09:42:07;;;;;;;5.55;2.20;;;;;;;19.10;45.62;100003.75;4861025;29;20049;-60
2023/04/15 09:44:34;;;;;;;7.55;2.95;;;;;;;19.07;44.89;99998.69;4861047;29;20069;-60
2023/04/15 09:47:02;;;;;;;6.18;2.95;;;;;;;18.96;43.63;99997.09;4860149;29;20059;-55
2023/04/15 09:49:29;;;;;;;7.47;3.33;;;;;;;18.86;44.02;99996.28;4860536;29;20053;-56
2023/04/15 09:52:00;;;;;;;4.78;2.58;;;;;;;18.76;45.28;99988.28;4861164;29;20061;-54
2023/04/15 09:54:33;;;;;;;6.68;2.30;;;;;;;18.74;46.09;99990.25;4861193;29;20370;-55
2023/04/15 09:57:08;;;;;;;5.60;2.30;;;;;;;18.74;45.99;99984.91;4861508;29;20492;-55
2023/04/15 09:59:36;;;;;;;5.60;2.13;;;;;;;18.78;45.78;99983.59;4861346;29;20050;-59
2023/04/15 10:02:07;;;;;;;5.05;2.25;;;;;;;18.82;45.95;99981.47;4861180;29;20053;-60
2023/04/15 10:04:38;;;;;;;4.82;2.25;;;;;;;18.85;45.90;99977.66;4861096;29;20472;-59
2023/04/15 10:07:08;;;;;;;5.47;1.85;;;;;;;18.87;45.91;99981.88;4861144;29;20405;-60
2023/04/15 10:09:37;;;;;;;5.88;1.80;;;;;;;18.87;46.06;99972.97;4860640;29;20481;-59
2023/04/15 10:12:05;;;;;;;5.55;2.28;;;;;;;18.89;45.78;99973.69;4860904;29;20405;-60
2023/04/15 10:14:37;;;;;;;5.03;1.70;;;;;;;18.92;46.21;99976.03;4861105;29;20504;-59
2023/04/15 10:17:07;;;;;;;4.27;1.40;;;;;;;18.90;46.07;99975.38;4859828;29;20050;-59
2023/04/15 10:19:36;;;;;;;4.43;1.73;;;;;;;18.91;45.98;99971.69;4860766;29;20049;-59
2023/04/15 10:22:05;;;;;;;6.70;2.08;;;;;;;18.93;45.95;99969.72;4860449;29;20361;-55
2023/04/15 10:24:33;;;;;;;6.38;2.20;;;;;;;18.93;45.38;99958.97;4860690;29;20046;-59
2023/04/15 10:27:03;;;;;;;4.40;1.70;;;;;;;18.95;45.95;99962.34;4860435;29;20515;-59
2023/04/15 10:29:30;;;;;;;5.68;2.00;;;;;;;18.95;45.68;99956.97;4860581;29;20045;-56
2023/04/15 10:32:02;;;;;;;4.57;1.95;;;;;;;18.96;45.46;99956.84;4860929;29;20054;-53
2023/04/15 10:34:30;;;;;;;4.43;1.60;;;;;;;18.97;45.48;99953.16;4860479;29;20057;-59
2023/04/15 10:37:02;;;;;;;4.18;1.50;;;;;;;18.99;45.59;99958.38;4860069;29;20046;-59
2023/04/15 10:39:32;;;;;;;6.55;2.58;;;;;;;18.98;46.28;99948.63;4860783;29;20392;-59
2023/04/15 10:42:09;;;;;;;5.65;2.03;;;;;;;18.97;46.27;99949.63;4860593;29;20053;-56
2023/04/15 10:44:37;;;;;;;5.90;2.40;;;;;;;18.97;45.56;99949.63;4860500;29;20046;-59
2023/04/15 10:47:20;;;;;;;5.28;2.00;;;;;;;18.96;45.72;99947.97;4860322;29;20050;-55
2023/04/15 10:49:51;;;;;;;7.82;2.75;;;;;;;18.98;44.88;99954.00;4857375;29;20049;-54
2023/04/15 10:52:23;;;;;;;5.32;1.73;;;;;;;18.97;45.31;99950.47;4859748;29;20049;-53
2023/04/15 10:55:21;;;;;;;4.70;1.60;;;;;;;18.97;45.23;99946.97;4859674;29;20423;-56
2023/04/15 10:57:59;;;;;;;7.85;1.67;;;;;;;18.98;44.74;99941.44;4850662;29;20408;-56
2023/04/15 11:00:31;;;;;;;4.97;1.70;;;;;;;18.99;44.88;99937.75;4860465;29;20054;-60
2023/04/15 11:03:06;;;;;;;4.55;1.50;;;;;;;18.99;46.05;99934.22;4860533;29;20057;-60
2023/04/15 11:05:40;;;;;;;5.07;1.70;;;;;;;19.01;46.33;99938.44;4859839;29;20053;-59
2023/04/15 11:08:10;;;;;;;7.13;2.40;;;;;;;19.02;46.24;99939.28;4872237;29;20468;-58
2023/04/15 11:10:37;;;;;;;9.68;2.38;;;;;;;19.03;46.31;99943.66;4859709;29;20068;-59
2023/04/15 11:13:16;;;;;;;4.85;2.05;;;;;;;19.05;46.23;99940.84;4860605;29;20049;-59
2023/04/15 11:15:45;;;;;;;6.35;1.88;;;;;;;19.06;45.54;99934.47;4859636;29;20053;-59
2023/04/15 11:18:21;;;;;;;5.20;1.67;;;;;;;19.08;46.20;99935.16;4859059;29;20507;-59
2023/04/15 11:20:51;;;;;;;6.55;1.95;;;;;;;19.08;47.44;99930.66;4860033;29;20049;-55
2023/04/15 11:23:26;;;;;;;9.00;2.15;;;;;;;19.08;47.98;99933.34;4860048;29;20496;-56
2023/04/15 11:25:56;;;;;;;4.85;1.80;;;;;;;19.07;47.44;99937.00;4859119;29;20049;-56
2023/04/15 11:28:29;;;;;;;9.63;2.13;;;;;;;19.07;48.01;99928.94;4859974;29;20046;-53
2023/04/15 11:30:57;;;;;;;8.00;2.22;;;;;;;19.05;48.09;99922.91;4862698;29;20060;-53
2023/04/15 11:33:25;;;;;;;5.68;2.15;;;;;;;19.07;47.95;99933.47;4863101;29;20053;-55
2023/04/15 11:35:54;;;;;;;9.38;2.22;;;;;;;19.07;48.83;99922.75;4862225;29;20057;-56
2023/04/15 11:38:21;;;;;;;6.68;1.85;;;;;;;19.06;47.75;99918.38;4863652;29;20048;-55